Urb La Serrania, Puerto Rico
Current Conditions -  °F | °C
As of 6:56 PM on Wednesday 26 Nov 2014 (Local Time) from TJSJ Reporting Station
Scattered Clouds Scattered Clouds  
Wind Chill: 79°   Ceiling: Unl
Heat Index: 82°   Visibility: 10mi
Dew Point: 74°   Wind: 6mph
Humidity: 84%   Direction: 110°ESE
Pressure: 30.01"   Gusts: 17mph
Location:  18.2361°N, 66.0369°W
Report Text: TJSJ 262256Z 11005G15KT 10SM FEW024 SCT038 SCT060 26/23 A3001 RMK AO2 SLP160 VCSH SW-W T02610233
Loading
Personal Weather Stations






























Interactive Weather Map New forecast layout! Learn more

10-Day Weather Forecast

Advertisements
Track Severe Weather on mobile